Terminal Aerodrome Forecast
Issued by NWS

Home | Current Version | Previous Version | Text Only | Print | Product List | Glossary On
Versions: 1 2 3 4 5 6 7 8 9 10 11 12 13 14 15
447
FTUS44 KLIX 312333
TAFMCB
TAF
KMCB 312333Z 0100/0124 18005KT P6SM FEW050 SCT250
      TEMPO 0109/0113 4SM BR
     FM011600 21005KT P6SM SCT035 SCT140=

USA.gov is the U.S. government's official web portal to all federal, state and local government web resources and services.